createdAt,value
2019-01-08T00:04:59.146Z,88.85
2019-01-08T00:10:03.676Z,89.66
2019-01-08T00:15:08.171Z,88.25
2019-01-08T00:20:12.953Z,88.95
2019-01-08T00:25:17.351Z,88.11
2019-01-08T00:30:21.730Z,89.52
2019-01-08T00:35:26.071Z,87.33
2019-01-08T00:40:30.441Z,88.19
2019-01-08T00:45:34.851Z,86.56
2019-01-08T00:50:39.242Z,87.15
2019-01-08T00:55:43.617Z,86.93
2019-01-08T01:00:48.091Z,87.20
2019-01-08T01:05:52.517Z,87.27
2019-01-08T01:10:56.877Z,87.47
2019-01-08T01:16:01.246Z,87.50
2019-01-08T01:21:05.601Z,87.85
2019-01-08T01:26:09.979Z,86.79
2019-01-08T01:31:14.324Z,87.14
2019-01-08T01:36:18.660Z,87.19
2019-01-08T01:41:23.072Z,87.97
2019-01-08T01:46:27.422Z,88.09
2019-01-08T01:51:31.793Z,89.16
2019-01-08T01:56:36.207Z,90.47
2019-01-08T02:01:40.541Z,90.89
2019-01-08T02:06:44.895Z,90.56
2019-01-08T02:11:49.242Z,91.20
2019-01-08T02:16:53.611Z,90.43
2019-01-08T02:21:57.964Z,89.76
2019-01-08T02:27:02.735Z,89.14
2019-01-08T02:32:07.137Z,89.38
2019-01-08T02:37:11.477Z,88.61
2019-01-08T02:42:15.933Z,89.08
2019-01-08T02:47:20.314Z,89.77
2019-01-08T02:52:24.670Z,89.63
2019-01-08T02:57:29.009Z,89.47
2019-01-08T03:02:34.112Z,89.13
2019-01-08T03:07:38.550Z,89.74
2019-01-08T03:12:42.937Z,88.88
2019-01-08T03:17:47.310Z,89.51
2019-01-08T03:22:51.643Z,90.17
2019-01-08T03:27:55.997Z,89.49
2019-01-08T03:33:00.347Z,89.67
2019-01-08T03:38:04.709Z,89.06
2019-01-08T03:43:09.087Z,89.76
2019-01-08T03:48:13.488Z,88.75
2019-01-08T03:53:17.829Z,88.63
2019-01-08T03:58:22.169Z,89.28
2019-01-08T04:03:26.540Z,89.28
2019-01-08T04:08:30.887Z,89.35
2019-01-08T04:13:35.201Z,88.48
2019-01-08T04:18:39.606Z,88.85
2019-01-08T04:23:43.953Z,88.03
2019-01-08T04:28:49.412Z,88.77
2019-01-08T04:33:53.761Z,88.61
2019-01-08T04:38:58.130Z,88.68
2019-01-08T04:44:02.494Z,88.17
2019-01-08T04:49:06.893Z,87.32
2019-01-08T04:54:11.239Z,87.77
2019-01-08T04:59:15.623Z,88.16
2019-01-08T05:04:19.971Z,86.54
2019-01-08T05:09:24.365Z,86.18
2019-01-08T05:14:28.773Z,85.56
2019-01-08T05:19:33.134Z,86.59
2019-01-08T05:24:37.488Z,86.31
2019-01-08T05:29:41.825Z,86.21
2019-01-08T05:34:46.176Z,86.44
2019-01-08T05:39:50.502Z,87.77
2019-01-08T05:44:54.919Z,82.16
2019-01-08T05:49:59.259Z,82.26
2019-01-08T05:55:03.610Z,81.42
2019-01-08T06:00:16.106Z,84.13
2019-01-08T06:05:15.047Z,83.60
2019-01-08T06:10:19.387Z,83.62
2019-01-08T06:15:23.855Z,85.32
2019-01-08T06:20:28.226Z,85.63
2019-01-08T06:25:32.569Z,85.09
2019-01-08T06:30:36.962Z,84.80
2019-01-08T06:35:41.323Z,83.58
2019-01-08T06:40:45.665Z,83.85
2019-01-08T06:45:50.104Z,84.01
2019-01-08T06:50:56.232Z,83.56
2019-01-08T06:56:00.511Z,82.74
2019-01-08T07:01:05.461Z,83.22
2019-01-08T07:06:09.818Z,83.25
2019-01-08T07:11:14.151Z,83.52
2019-01-08T07:16:18.494Z,82.92
2019-01-08T07:21:22.883Z,83.29
2019-01-08T07:26:27.619Z,83.16
2019-01-08T07:31:32.004Z,83.14
2019-01-08T07:36:36.376Z,83.04
2019-01-08T07:41:40.722Z,82.40
2019-01-08T07:46:46.179Z,81.78
2019-01-08T07:51:50.550Z,82.12
2019-01-08T07:56:54.915Z,81.83
2019-01-08T08:01:59.300Z,81.34
2019-01-08T08:07:03.660Z,82.38
2019-01-08T08:12:08.034Z,81.71
2019-01-08T08:17:12.373Z,81.13
2019-01-08T08:22:16.808Z,80.30
2019-01-08T08:27:21.175Z,79.60
2019-01-08T08:32:25.569Z,78.90
2019-01-08T08:37:29.998Z,79.39
2019-01-08T08:42:34.317Z,78.32
2019-01-08T08:47:38.680Z,78.77
2019-01-08T08:52:43.133Z,78.81
2019-01-08T08:57:47.560Z,79.17
2019-01-08T09:02:51.922Z,79.58
2019-01-08T09:07:56.308Z,79.58
2019-01-08T09:13:00.718Z,79.33
2019-01-08T09:18:05.161Z,78.65
2019-01-08T09:23:09.544Z,79.05
2019-01-08T09:28:13.901Z,79.02
2019-01-08T09:33:18.259Z,79.82
2019-01-08T09:38:22.654Z,78.96
2019-01-08T09:43:27.066Z,79.56
2019-01-08T09:48:31.382Z,80.94
2019-01-08T09:53:35.755Z,80.90
2019-01-08T09:58:40.120Z,81.00
2019-01-08T10:03:44.473Z,80.25
2019-01-08T10:08:48.908Z,81.40
2019-01-08T10:13:53.252Z,81.29
2019-01-08T10:18:57.617Z,82.37
2019-01-08T10:24:02.181Z,81.83
2019-01-08T10:29:06.705Z,81.20
2019-01-08T10:34:11.020Z,80.75
2019-01-08T10:39:15.357Z,78.46
2019-01-08T10:44:19.824Z,79.24
2019-01-08T10:49:24.238Z,79.21
2019-01-08T10:54:28.607Z,79.60
2019-01-08T10:59:32.986Z,80.46
2019-01-08T11:04:37.619Z,82.00
2019-01-08T11:09:41.977Z,82.83
2019-01-08T11:14:46.462Z,82.25
2019-01-08T11:19:50.800Z,83.01
2019-01-08T11:24:55.156Z,83.03
2019-01-08T11:29:59.498Z,82.73
2019-01-08T11:35:04.008Z,82.74
2019-01-08T11:40:08.687Z,82.59
2019-01-08T11:45:13.010Z,81.48
2019-01-08T11:50:17.486Z,80.55
2019-01-08T11:55:21.842Z,80.75
2019-01-08T12:00:26.269Z,81.01
2019-01-08T12:05:30.621Z,84.68
2019-01-08T12:10:35.083Z,84.54
2019-01-08T12:15:39.422Z,86.06
2019-01-08T12:20:45.632Z,85.67
2019-01-08T12:25:50.013Z,84.76
2019-01-08T12:30:54.386Z,85.06
2019-01-08T12:35:58.750Z,85.13
2019-01-08T12:41:03.093Z,84.67
2019-01-08T12:46:07.462Z,84.22
2019-01-08T12:51:11.942Z,85.18
2019-01-08T12:56:16.301Z,85.16
2019-01-08T13:01:21.069Z,86.58
2019-01-08T13:06:26.278Z,87.83
2019-01-08T13:11:30.739Z,87.75
2019-01-08T13:16:35.123Z,87.21
2019-01-08T13:21:39.559Z,87.66
2019-01-08T13:26:43.900Z,88.25
2019-01-08T13:31:48.349Z,87.96
2019-01-08T13:36:52.727Z,87.14
2019-01-08T13:41:57.160Z,88.73
2019-01-08T13:47:01.590Z,88.42
2019-01-08T13:52:05.999Z,88.82
2019-01-08T13:57:10.611Z,89.42
2019-01-08T14:02:15.911Z,89.21
2019-01-08T14:07:20.438Z,87.95
2019-01-08T14:12:24.777Z,89.13
2019-01-08T14:17:29.251Z,87.92
2019-01-08T14:22:33.661Z,87.28
2019-01-08T14:27:38.049Z,87.82
2019-01-08T14:32:42.427Z,86.38
2019-01-08T14:37:46.815Z,85.66
2019-01-08T14:42:51.170Z,85.27
2019-01-08T14:47:55.607Z,85.57
2019-01-08T14:53:02.871Z,85.79
2019-01-08T14:58:07.198Z,85.40
2019-01-08T15:03:11.555Z,86.08
2019-01-08T15:08:16.961Z,85.99
2019-01-08T15:13:22.071Z,84.80
2019-01-08T15:18:26.450Z,85.07
2019-01-08T15:23:30.878Z,85.59
2019-01-08T15:28:35.243Z,86.52
2019-01-08T15:33:39.581Z,86.98
2019-01-08T15:38:44.063Z,88.71
2019-01-08T15:43:48.502Z,89.12
2019-01-08T15:48:52.952Z,89.46
2019-01-08T15:53:58.179Z,89.63
2019-01-08T15:59:02.637Z,86.72
2019-01-08T16:04:07.010Z,86.27
2019-01-08T16:09:11.412Z,85.19
2019-01-08T16:14:15.740Z,84.20
2019-01-08T16:19:20.073Z,84.72
2019-01-08T16:24:24.461Z,85.93
2019-01-08T16:29:28.841Z,86.33
2019-01-08T16:34:33.228Z,88.25
2019-01-08T16:39:37.591Z,88.89
2019-01-08T16:44:43.670Z,83.84
2019-01-08T16:49:48.114Z,84.80
2019-01-08T16:54:52.488Z,86.02
2019-01-08T16:59:56.857Z,85.36
2019-01-08T17:05:01.208Z,85.83
2019-01-08T17:10:07.378Z,85.02
2019-01-08T17:15:11.777Z,86.72
2019-01-08T17:20:16.133Z,86.72
2019-01-08T17:25:20.483Z,87.73
2019-01-08T17:30:24.838Z,87.15
2019-01-08T17:35:29.312Z,86.52
2019-01-08T17:40:33.694Z,85.94
2019-01-08T17:45:38.245Z,85.33
2019-01-08T17:50:42.551Z,84.57
2019-01-08T17:55:46.986Z,84.45
2019-01-08T18:00:51.319Z,83.96
2019-01-08T18:05:55.733Z,84.57
2019-01-08T18:11:00.174Z,86.75
2019-01-08T18:16:04.536Z,87.25
2019-01-08T18:21:08.898Z,87.17
2019-01-08T18:26:13.384Z,86.97
2019-01-08T18:31:18.990Z,88.04
2019-01-08T18:36:23.353Z,88.55
2019-01-08T18:41:27.775Z,88.35
2019-01-08T18:46:33.255Z,89.19
2019-01-08T18:51:37.667Z,89.02
2019-01-08T18:56:42.071Z,90.25
2019-01-08T19:01:46.472Z,90.05
2019-01-08T19:06:50.945Z,89.41
2019-01-08T19:11:55.567Z,90.41
2019-01-08T19:16:59.986Z,89.66
2019-01-08T19:22:04.381Z,89.58
2019-01-08T19:27:08.793Z,89.53
2019-01-08T19:32:13.225Z,89.45
2019-01-08T19:37:17.609Z,89.63
2019-01-08T19:42:21.999Z,89.91
2019-01-08T19:47:26.334Z,89.94
2019-01-08T19:52:31.251Z,89.54
2019-01-08T19:57:36.159Z,88.42
2019-01-08T20:02:42.430Z,87.58
2019-01-08T20:07:47.150Z,86.59
2019-01-08T20:12:51.932Z,84.50
2019-01-08T20:17:56.745Z,85.43
2019-01-08T20:23:01.102Z,86.51
2019-01-08T20:28:05.552Z,89.19
2019-01-08T20:33:10.026Z,89.13
2019-01-08T20:38:14.398Z,89.26
2019-01-08T20:43:18.846Z,90.91
2019-01-08T20:48:23.198Z,90.46
2019-01-08T20:53:27.553Z,91.68
2019-01-08T20:58:32.051Z,91.77
2019-01-08T21:03:36.361Z,91.22
2019-01-08T21:08:40.722Z,91.70
2019-01-08T21:13:45.098Z,90.78
2019-01-08T21:18:49.462Z,91.49
2019-01-08T21:23:53.800Z,90.19
2019-01-08T21:28:58.180Z,90.23
2019-01-08T21:34:02.919Z,89.93
2019-01-08T21:39:07.353Z,89.50
2019-01-08T21:44:13.645Z,90.62
2019-01-08T21:49:17.985Z,90.96
2019-01-08T21:54:22.352Z,90.96
2019-01-08T21:59:27.335Z,90.86
2019-01-08T22:04:31.695Z,91.64
2019-01-08T22:09:36.134Z,90.82
2019-01-08T22:14:40.492Z,90.66
2019-01-08T22:19:44.953Z,89.23
2019-01-08T22:24:50.179Z,90.48
2019-01-08T22:29:54.524Z,90.70
2019-01-08T22:35:02.335Z,91.18
2019-01-08T22:40:07.712Z,91.36
2019-01-08T22:45:12.066Z,92.48
2019-01-08T22:50:17.595Z,93.54
2019-01-08T22:55:21.930Z,92.83
2019-01-08T23:00:36.688Z,92.54
2019-01-08T23:05:42.713Z,92.42
2019-01-08T23:10:47.421Z,93.41
2019-01-08T23:15:51.826Z,92.81
2019-01-08T23:20:56.193Z,93.26
2019-01-08T23:26:00.557Z,93.89
2019-01-08T23:31:04.909Z,93.76
2019-01-08T23:36:09.431Z,93.55
2019-01-08T23:41:13.764Z,94.29
2019-01-08T23:46:18.127Z,93.88
2019-01-08T23:51:22.460Z,92.46
2019-01-08T23:56:27.680Z,92.69
